Boise, ID (83722)

3:06 PM MST on January 26, 2015 (GMT -0700)
Sunset | Change Station
CLOSE
Current Station
Personal Weather Station
Location: Boise, ID
Elevation: 2677 ft
Nearby Weather Stations

Elev 2677 ft 43.65 °N, 116.23 °W | Updated 9 minutes ago

Partly Cloudy
Partly Cloudy
41.0 °F
Feels Like 41 °F
N
2.2
Wind Variable Wind from SSW

Today
High -- | Low -- °F
--% Chance of Precip.
Yesterday
High -- | Low -- °F
Precip. -- in
8:07 AM 5:47 PM
Waxing Crescent, 47% visible
Pressure 30.26 in
Visibility 10.0 miles
Clouds Clear
Windchill 41 °F
Dew Point 37 °F
Humidity 85%
Rainfall 0.00 in
Snow Depth Not available.
UV 2 out of 12
Pollen 1.30 out of 12
Air Quality Not available.
Flu Activity Not available.
METAR KBOI 262153Z 35007KT 10SM CLR 06/02 A3022 RMK AO2 SLP246 T00610017

More Conditions Fewer Conditions

Pressure 30.26 in
Visibility 10.0 miles
Clouds Clear
Windchill 41 °F
Dew Point 37 °F
Humidity 85%
Rainfall 0.00 in
Snow Depth Not available.
UV 2 out of 12
Pollen 1.30 out of 12
Air Quality Not available.
Flu Activity Not available.
METAR KBOI 262153Z 35007KT 10SM CLR 06/02 A3022 RMK AO2 SLP246 T00610017

More Conditions Fewer Conditions

10-Day Weather Forecast

Almanac

Astronomy

Jan. 26, 2015 Rise Set
Actual Time
Civil Twilight
Nautical Twilight
Astronomical Twilight
Moon
Length of Visible Light
Length of Day
Tomorrow will be .
, % of the Moon is Illuminated

Today's Extremes

State Highs State Lows

Community

WunderPhotos

Upload Photos

1,790,379 photos uploaded!

WunderBlogs® & News

Nearby

Air Quality

  Air Quality AQ Index Pollutant
Not available.

Snow Depth

Station Depth Elevation

Earthquake Activity

City Distance Mag. Time & Date
Minimum magnitude displayed is 2.5.

Coastal Water Temperatures

Place Temperature

Nearby Weather Stations